sensor_id;sensor_type;location;lat;lon;timestamp;P1;P2;P0
20157;PMS5003;10239;56.820;24.416;2024-03-23T00:54:03;6.60;5.20;2.20
20157;PMS5003;10239;56.820;24.416;2024-03-23T00:56:29;2.40;2.40;1.00
20157;PMS5003;10239;56.820;24.416;2024-03-23T00:58:56;4.80;4.80;2.00
20157;PMS5003;10239;56.820;24.416;2024-03-23T01:01:22;6.60;5.00;1.80
20157;PMS5003;10239;56.820;24.416;2024-03-23T01:03:48;7.00;5.80;2.00
20157;PMS5003;10239;56.820;24.416;2024-03-23T01:06:14;4.60;4.60;1.20
20157;PMS5003;10239;56.820;24.416;2024-03-23T01:08:41;5.00;5.00;2.00
20157;PMS5003;10239;56.820;24.416;2024-03-23T01:11:07;8.00;3.80;1.80
20157;PMS5003;10239;56.820;24.416;2024-03-23T01:13:34;7.20;5.20;2.00
20157;PMS5003;10239;56.820;24.416;2024-03-23T01:16:00;8.60;6.40;2.00
20157;PMS5003;10239;56.820;24.416;2024-03-23T01:18:27;8.00;8.00;2.00
20157;PMS5003;10239;56.820;24.416;2024-03-23T01:20:53;1.00;1.00;0.00
20157;PMS5003;10239;56.820;24.416;2024-03-23T01:23:20;5.60;4.60;1.00
20157;PMS5003;10239;56.820;24.416;2024-03-23T01:25:53;4.20;4.20;1.40
20157;PMS5003;10239;56.820;24.416;2024-03-23T01:28:20;8.20;5.00;2.00
20157;PMS5003;10239;56.820;24.416;2024-03-23T01:30:47;7.20;7.00;3.80
20157;PMS5003;10239;56.820;24.416;2024-03-23T01:33:13;7.80;5.00;1.40
20157;PMS5003;10239;56.820;24.416;2024-03-23T01:35:40;1.60;1.60;0.00
20157;PMS5003;10239;56.820;24.416;2024-03-23T01:38:06;9.60;8.00;2.00
20157;PMS5003;10239;56.820;24.416;2024-03-23T01:40:33;8.80;5.00;2.00
20157;PMS5003;10239;56.820;24.416;2024-03-23T01:43:06;8.40;7.00;1.40
20157;PMS5003;10239;56.820;24.416;2024-03-23T01:45:34;5.60;5.60;1.40
20157;PMS5003;10239;56.820;24.416;2024-03-23T01:48:00;6.40;5.40;1.20
20157;PMS5003;10239;56.820;24.416;2024-03-23T01:50:28;7.20;7.20;2.00
20157;PMS5003;10239;56.820;24.416;2024-03-23T01:53:02;6.00;4.00;1.00
20157;PMS5003;10239;56.820;24.416;2024-03-23T01:55:31;7.60;5.80;1.60
20157;PMS5003;10239;56.820;24.416;2024-03-23T01:57:58;6.60;5.00;4.00
20157;PMS5003;10239;56.820;24.416;2024-03-23T02:00:25;5.20;3.20;1.00
20157;PMS5003;10239;56.820;24.416;2024-03-23T02:02:53;6.60;5.00;2.00
20157;PMS5003;10239;56.820;24.416;2024-03-23T02:05:21;9.60;5.00;2.00
20157;PMS5003;10239;56.820;24.416;2024-03-23T02:07:48;7.60;3.80;1.00
20157;PMS5003;10239;56.820;24.416;2024-03-23T02:10:15;5.40;3.20;0.00
20157;PMS5003;10239;56.820;24.416;2024-03-23T02:12:41;8.60;5.00;1.60
20157;PMS5003;10239;56.820;24.416;2024-03-23T02:15:07;6.20;5.80;2.00
20157;PMS5003;10239;56.820;24.416;2024-03-23T02:17:34;9.80;8.20;3.00
20157;PMS5003;10239;56.820;24.416;2024-03-23T02:20:02;6.80;5.40;0.80
20157;PMS5003;10239;56.820;24.416;2024-03-23T02:22:38;5.60;3.60;1.60
20157;PMS5003;10239;56.820;24.416;2024-03-23T02:25:05;3.20;3.20;2.00
20157;PMS5003;10239;56.820;24.416;2024-03-23T02:27:32;9.60;3.00;1.00
20157;PMS5003;10239;56.820;24.416;2024-03-23T02:30:00;3.80;3.40;1.00
20157;PMS5003;10239;56.820;24.416;2024-03-23T02:32:27;11.80;7.00;4.20
20157;PMS5003;10239;56.820;24.416;2024-03-23T02:34:53;8.20;8.20;2.00
20157;PMS5003;10239;56.820;24.416;2024-03-23T02:37:19;7.20;5.60;2.00
20157;PMS5003;10239;56.820;24.416;2024-03-23T02:39:46;10.20;6.20;2.00
20157;PMS5003;10239;56.820;24.416;2024-03-23T02:42:12;5.60;5.20;0.00
20157;PMS5003;10239;56.820;24.416;2024-03-23T02:44:38;6.00;3.60;1.00
20157;PMS5003;10239;56.820;24.416;2024-03-23T02:47:05;6.00;5.20;2.60
20157;PMS5003;10239;56.820;24.416;2024-03-23T02:49:32;6.20;6.00;1.20
20157;PMS5003;10239;56.820;24.416;2024-03-23T02:51:58;5.60;5.60;1.00
20157;PMS5003;10239;56.820;24.416;2024-03-23T02:54:25;5.20;4.40;1.00
20157;PMS5003;10239;56.820;24.416;2024-03-23T02:56:51;6.60;5.00;1.60
20157;PMS5003;10239;56.820;24.416;2024-03-23T02:59:18;8.80;6.00;2.00
20157;PMS5003;10239;56.820;24.416;2024-03-23T03:01:44;10.00;7.60;2.00
20157;PMS5003;10239;56.820;24.416;2024-03-23T03:04:11;7.40;6.20;2.00
20157;PMS5003;10239;56.820;24.416;2024-03-23T03:06:37;4.60;4.60;1.00
20157;PMS5003;10239;56.820;24.416;2024-03-23T03:09:04;15.00;8.80;2.00
20157;PMS5003;10239;56.820;24.416;2024-03-23T03:11:30;10.20;6.40;2.00
20157;PMS5003;10239;56.820;24.416;2024-03-23T03:13:56;12.20;6.00;2.00
20157;PMS5003;10239;56.820;24.416;2024-03-23T03:16:26;5.00;3.20;1.00
20157;PMS5003;10239;56.820;24.416;2024-03-23T03:18:53;5.20;2.20;1.00
20157;PMS5003;10239;56.820;24.416;2024-03-23T03:21:19;2.40;2.00;0.80
20157;PMS5003;10239;56.820;24.416;2024-03-23T03:23:46;5.00;3.20;0.00
20157;PMS5003;10239;56.820;24.416;2024-03-23T03:26:18;6.20;2.20;0.80
20157;PMS5003;10239;56.820;24.416;2024-03-23T03:28:45;5.40;2.00;0.00
20157;PMS5003;10239;56.820;24.416;2024-03-23T03:31:14;4.80;1.60;0.60
20157;PMS5003;10239;56.820;24.416;2024-03-23T03:33:42;3.40;1.60;0.80
20157;PMS5003;10239;56.820;24.416;2024-03-23T03:36:09;4.20;2.00;1.00
20157;PMS5003;10239;56.820;24.416;2024-03-23T03:38:35;1.60;1.60;0.00
20157;PMS5003;10239;56.820;24.416;2024-03-23T03:41:02;2.60;1.40;0.60
20157;PMS5003;10239;56.820;24.416;2024-03-23T03:43:29;7.20;2.80;1.00
20157;PMS5003;10239;56.820;24.416;2024-03-23T03:45:56;9.00;5.00;1.00
20157;PMS5003;10239;56.820;24.416;2024-03-23T03:48:24;2.00;2.00;1.00
20157;PMS5003;10239;56.820;24.416;2024-03-23T03:50:51;4.80;4.80;0.80
20157;PMS5003;10239;56.820;24.416;2024-03-23T03:53:18;4.00;4.00;0.80
20157;PMS5003;10239;56.820;24.416;2024-03-23T03:55:45;6.00;2.00;1.00
20157;PMS5003;10239;56.820;24.416;2024-03-23T03:58:12;6.00;4.00;1.40
20157;PMS5003;10239;56.820;24.416;2024-03-23T04:00:38;4.00;2.00;0.40
20157;PMS5003;10239;56.820;24.416;2024-03-23T04:03:05;7.80;4.20;1.00
20157;PMS5003;10239;56.820;24.416;2024-03-23T04:05:31;4.20;4.00;1.00
20157;PMS5003;10239;56.820;24.416;2024-03-23T04:07:58;3.20;2.00;0.80
20157;PMS5003;10239;56.820;24.416;2024-03-23T04:10:24;4.00;4.00;0.60
20157;PMS5003;10239;56.820;24.416;2024-03-23T04:12:52;3.00;3.00;0.80
20157;PMS5003;10239;56.820;24.416;2024-03-23T04:15:22;2.60;1.00;0.00
20157;PMS5003;10239;56.820;24.416;2024-03-23T04:17:48;1.40;1.40;0.00
20157;PMS5003;10239;56.820;24.416;2024-03-23T04:20:16;6.80;1.60;0.00
20157;PMS5003;10239;56.820;24.416;2024-03-23T04:22:43;5.00;4.40;1.00
20157;PMS5003;10239;56.820;24.416;2024-03-23T04:25:09;2.00;1.20;0.20
20157;PMS5003;10239;56.820;24.416;2024-03-23T04:27:36;3.80;2.40;1.00
20157;PMS5003;10239;56.820;24.416;2024-03-23T04:30:03;4.00;4.00;1.00
20157;PMS5003;10239;56.820;24.416;2024-03-23T04:32:36;1.40;1.40;1.00
20157;PMS5003;10239;56.820;24.416;2024-03-23T04:35:03;7.00;2.00;0.20
20157;PMS5003;10239;56.820;24.416;2024-03-23T04:37:34;3.00;3.00;0.20
20157;PMS5003;10239;56.820;24.416;2024-03-23T04:40:06;1.60;1.00;0.40
20157;PMS5003;10239;56.820;24.416;2024-03-23T04:42:33;8.20;4.80;1.00
20157;PMS5003;10239;56.820;24.416;2024-03-23T04:45:00;4.00;4.00;0.80
20157;PMS5003;10239;56.820;24.416;2024-03-23T04:47:26;1.60;1.60;0.60
20157;PMS5003;10239;56.820;24.416;2024-03-23T04:49:54;4.60;1.60;0.60
20157;PMS5003;10239;56.820;24.416;2024-03-23T04:52:20;2.80;1.40;0.00
20157;PMS5003;10239;56.820;24.416;2024-03-23T04:54:47;5.00;3.60;1.00
20157;PMS5003;10239;56.820;24.416;2024-03-23T04:57:13;1.00;1.00;0.00
20157;PMS5003;10239;56.820;24.416;2024-03-23T04:59:45;4.00;0.20;0.00
20157;PMS5003;10239;56.820;24.416;2024-03-23T05:02:13;2.20;1.80;0.40
20157;PMS5003;10239;56.820;24.416;2024-03-23T05:04:40;4.00;1.00;0.00
20157;PMS5003;10239;56.820;24.416;2024-03-23T05:07:07;2.80;2.00;0.20
20157;PMS5003;10239;56.820;24.416;2024-03-23T05:09:33;2.40;2.40;1.00
20157;PMS5003;10239;56.820;24.416;2024-03-23T05:12:00;3.40;1.80;1.00
20157;PMS5003;10239;56.820;24.416;2024-03-23T05:14:26;4.60;4.60;1.00
20157;PMS5003;10239;56.820;24.416;2024-03-23T05:16:52;10.20;4.80;1.00
20157;PMS5003;10239;56.820;24.416;2024-03-23T05:19:19;5.40;3.20;1.00
20157;PMS5003;10239;56.820;24.416;2024-03-23T05:21:45;5.40;3.60;1.00
20157;PMS5003;10239;56.820;24.416;2024-03-23T05:24:11;5.00;5.00;1.00
20157;PMS5003;10239;56.820;24.416;2024-03-23T05:26:38;4.40;3.20;1.80
20157;PMS5003;10239;56.820;24.416;2024-03-23T05:29:04;9.20;5.20;1.00
20157;PMS5003;10239;56.820;24.416;2024-03-23T05:31:32;6.20;1.60;0.80
20157;PMS5003;10239;56.820;24.416;2024-03-23T05:33:59;6.00;4.80;1.00
20157;PMS5003;10239;56.820;24.416;2024-03-23T05:36:25;10.40;4.20;1.00
20157;PMS5003;10239;56.820;24.416;2024-03-23T05:38:51;5.00;1.80;0.00
20157;PMS5003;10239;56.820;24.416;2024-03-23T05:41:18;2.60;2.20;0.40
20157;PMS5003;10239;56.820;24.416;2024-03-23T05:43:44;5.00;3.40;1.00
20157;PMS5003;10239;56.820;24.416;2024-03-23T05:46:11;10.40;5.00;1.60
20157;PMS5003;10239;56.820;24.416;2024-03-23T05:48:37;4.60;4.60;1.60
20157;PMS5003;10239;56.820;24.416;2024-03-23T05:51:04;5.40;2.00;0.00
20157;PMS5003;10239;56.820;24.416;2024-03-23T05:53:30;3.40;3.40;1.00
20157;PMS5003;10239;56.820;24.416;2024-03-23T05:56:02;6.00;2.00;0.00
20157;PMS5003;10239;56.820;24.416;2024-03-23T05:58:32;7.40;3.00;1.00
20157;PMS5003;10239;56.820;24.416;2024-03-23T06:01:02;4.80;2.60;1.00
20157;PMS5003;10239;56.820;24.416;2024-03-23T06:03:29;5.40;2.80;0.60
20157;PMS5003;10239;56.820;24.416;2024-03-23T06:05:56;3.00;2.20;1.00
20157;PMS5003;10239;56.820;24.416;2024-03-23T06:08:22;0.00;0.00;0.00
20157;PMS5003;10239;56.820;24.416;2024-03-23T06:10:49;5.60;2.20;0.00
20157;PMS5003;10239;56.820;24.416;2024-03-23T06:13:16;4.00;2.20;0.80
20157;PMS5003;10239;56.820;24.416;2024-03-23T06:15:50;4.20;2.60;1.00
20157;PMS5003;10239;56.820;24.416;2024-03-23T06:18:16;3.40;3.40;1.00
20157;PMS5003;10239;56.820;24.416;2024-03-23T06:20:42;4.80;2.40;1.00
20157;PMS5003;10239;56.820;24.416;2024-03-23T06:23:09;3.40;2.40;0.60
20157;PMS5003;10239;56.820;24.416;2024-03-23T06:25:35;5.00;2.40;0.80
20157;PMS5003;10239;56.820;24.416;2024-03-23T06:28:02;6.00;3.00;1.00
20157;PMS5003;10239;56.820;24.416;2024-03-23T06:30:29;7.80;5.40;1.60
20157;PMS5003;10239;56.820;24.416;2024-03-23T06:32:57;3.80;2.60;1.00
20157;PMS5003;10239;56.820;24.416;2024-03-23T06:35:23;2.00;1.00;0.00
20157;PMS5003;10239;56.820;24.416;2024-03-23T06:37:50;1.80;1.20;0.60
20157;PMS5003;10239;56.820;24.416;2024-03-23T06:40:16;2.00;0.60;0.00
20157;PMS5003;10239;56.820;24.416;2024-03-23T06:42:43;5.20;3.40;1.00
20157;PMS5003;10239;56.820;24.416;2024-03-23T06:45:09;0.60;0.60;0.00
20157;PMS5003;10239;56.820;24.416;2024-03-23T06:47:35;2.00;2.00;0.80
20157;PMS5003;10239;56.820;24.416;2024-03-23T06:50:03;3.20;1.00;0.20
20157;PMS5003;10239;56.820;24.416;2024-03-23T06:52:30;3.40;1.40;1.00
20157;PMS5003;10239;56.820;24.416;2024-03-23T06:54:57;6.80;3.00;1.20
20157;PMS5003;10239;56.820;24.416;2024-03-23T06:57:23;3.00;1.00;0.40
20157;PMS5003;10239;56.820;24.416;2024-03-23T06:59:50;4.60;2.60;0.80
20157;PMS5003;10239;56.820;24.416;2024-03-23T07:02:16;4.60;2.00;0.20
20157;PMS5003;10239;56.820;24.416;2024-03-23T07:04:43;2.00;2.00;1.00
20157;PMS5003;10239;56.820;24.416;2024-03-23T07:07:09;1.00;1.00;0.00
20157;PMS5003;10239;56.820;24.416;2024-03-23T07:09:35;1.60;1.00;0.00
20157;PMS5003;10239;56.820;24.416;2024-03-23T07:12:03;2.60;2.20;0.80
20157;PMS5003;10239;56.820;24.416;2024-03-23T07:14:30;3.00;2.00;0.60
20157;PMS5003;10239;56.820;24.416;2024-03-23T07:16:56;1.00;1.00;0.00
20157;PMS5003;10239;56.820;24.416;2024-03-23T07:19:23;3.20;2.60;0.80
20157;PMS5003;10239;56.820;24.416;2024-03-23T07:21:50;2.40;1.20;0.00
20157;PMS5003;10239;56.820;24.416;2024-03-23T07:24:18;2.60;1.00;0.60
20157;PMS5003;10239;56.820;24.416;2024-03-23T07:26:44;1.40;1.20;0.80
20157;PMS5003;10239;56.820;24.416;2024-03-23T07:29:12;2.00;2.00;0.50
20157;PMS5003;10239;56.820;24.416;2024-03-23T07:31:38;5.00;2.00;1.00
20157;PMS5003;10239;56.820;24.416;2024-03-23T07:34:05;2.25;1.00;0.50
20157;PMS5003;10239;56.820;24.416;2024-03-23T07:36:31;1.50;1.00;0.00
20157;PMS5003;10239;56.820;24.416;2024-03-23T07:38:57;3.00;3.00;0.75
20157;PMS5003;10239;56.820;24.416;2024-03-23T07:41:23;2.00;2.00;1.00
20157;PMS5003;10239;56.820;24.416;2024-03-23T07:43:50;3.25;2.25;0.75
20157;PMS5003;10239;56.820;24.416;2024-03-23T07:46:16;4.00;2.00;1.00
20157;PMS5003;10239;56.820;24.416;2024-03-23T07:48:44;3.25;3.25;1.75
20157;PMS5003;10239;56.820;24.416;2024-03-23T07:51:11;1.75;1.75;0.00
20157;PMS5003;10239;56.820;24.416;2024-03-23T07:53:44;2.50;2.00;1.00
20157;PMS5003;10239;56.820;24.416;2024-03-23T07:56:12;3.25;1.75;0.75
20157;PMS5003;10239;56.820;24.416;2024-03-23T07:58:41;2.00;2.00;1.00
20157;PMS5003;10239;56.820;24.416;2024-03-23T08:01:08;3.25;1.75;0.50
20157;PMS5003;10239;56.820;24.416;2024-03-23T08:03:37;2.00;1.50;0.00
20157;PMS5003;10239;56.820;24.416;2024-03-23T08:06:16;2.50;2.50;0.75
20157;PMS5003;10239;56.820;24.416;2024-03-23T08:08:46;2.80;2.00;1.00
20157;PMS5003;10239;56.820;24.416;2024-03-23T08:11:13;5.40;3.60;0.60
20157;PMS5003;10239;56.820;24.416;2024-03-23T08:13:39;2.60;0.80;0.00
20157;PMS5003;10239;56.820;24.416;2024-03-23T08:16:07;3.00;2.20;0.60
20157;PMS5003;10239;56.820;24.416;2024-03-23T08:18:37;1.20;1.20;0.00
20157;PMS5003;10239;56.820;24.416;2024-03-23T08:21:03;1.20;1.20;0.20
20157;PMS5003;10239;56.820;24.416;2024-03-23T08:23:31;3.60;2.00;1.00
20157;PMS5003;10239;56.820;24.416;2024-03-23T08:26:02;2.80;2.20;1.00
20157;PMS5003;10239;56.820;24.416;2024-03-23T08:28:32;1.00;1.00;0.00
20157;PMS5003;10239;56.820;24.416;2024-03-23T08:31:03;2.00;2.00;1.00
20157;PMS5003;10239;56.820;24.416;2024-03-23T08:33:31;5.00;2.00;1.00
20157;PMS5003;10239;56.820;24.416;2024-03-23T08:35:58;3.25;2.50;0.75
20157;PMS5003;10239;56.820;24.416;2024-03-23T08:38:27;9.00;3.60;1.00
20157;PMS5003;10239;56.820;24.416;2024-03-23T08:41:10;3.50;2.00;0.00
20157;PMS5003;10239;56.820;24.416;2024-03-23T08:43:38;1.50;1.00;1.00
20157;PMS5003;10239;56.820;24.416;2024-03-23T08:46:12;1.75;1.75;0.50
20157;PMS5003;10239;56.820;24.416;2024-03-23T08:48:41;3.75;1.75;1.00
20157;PMS5003;10239;56.820;24.416;2024-03-23T08:51:12;5.25;1.75;0.25
20157;PMS5003;10239;56.820;24.416;2024-03-23T08:53:39;3.50;2.50;1.00
20157;PMS5003;10239;56.820;24.416;2024-03-23T08:56:06;2.00;2.00;0.75
20157;PMS5003;10239;56.820;24.416;2024-03-23T08:58:34;3.25;2.00;1.00
20157;PMS5003;10239;56.820;24.416;2024-03-23T09:01:04;1.00;1.00;0.00
20157;PMS5003;10239;56.820;24.416;2024-03-23T09:03:33;4.00;2.50;1.50
20157;PMS5003;10239;56.820;24.416;2024-03-23T09:06:01;2.50;0.75;0.00
20157;PMS5003;10239;56.820;24.416;2024-03-23T09:08:37;0.75;0.75;0.00
20157;PMS5003;10239;56.820;24.416;2024-03-23T09:11:05;3.00;1.75;0.25
20157;PMS5003;10239;56.820;24.416;2024-03-23T09:13:35;1.25;1.25;1.00
20157;PMS5003;10239;56.820;24.416;2024-03-23T09:16:03;4.50;2.00;1.00
20157;PMS5003;10239;56.820;24.416;2024-03-23T09:18:34;8.50;3.00;1.00
20157;PMS5003;10239;56.820;24.416;2024-03-23T09:21:02;1.50;1.50;0.00
20157;PMS5003;10239;56.820;24.416;2024-03-23T09:23:29;0.50;0.50;0.00
20157;PMS5003;10239;56.820;24.416;2024-03-23T09:25:56;1.00;1.00;0.00
20157;PMS5003;10239;56.820;24.416;2024-03-23T09:28:22;3.50;1.00;0.00
20157;PMS5003;10239;56.820;24.416;2024-03-23T09:30:49;2.50;2.50;0.00
20157;PMS5003;10239;56.820;24.416;2024-03-23T09:33:15;0.00;0.00;0.00
20157;PMS5003;10239;56.820;24.416;2024-03-23T09:35:41;2.00;2.00;0.75
20157;PMS5003;10239;56.820;24.416;2024-03-23T09:38:10;3.50;0.50;0.00
20157;PMS5003;10239;56.820;24.416;2024-03-23T09:40:45;2.00;2.00;0.25
20157;PMS5003;10239;56.820;24.416;2024-03-23T09:43:18;5.00;2.00;0.00
20157;PMS5003;10239;56.820;24.416;2024-03-23T09:45:45;2.25;2.00;0.00
20157;PMS5003;10239;56.820;24.416;2024-03-23T09:48:12;0.00;0.00;0.00
20157;PMS5003;10239;56.820;24.416;2024-03-23T09:50:39;2.25;1.25;0.00
20157;PMS5003;10239;56.820;24.416;2024-03-23T09:53:07;3.25;1.25;0.00
20157;PMS5003;10239;56.820;24.416;2024-03-23T09:55:34;1.00;1.00;0.00
20157;PMS5003;10239;56.820;24.416;2024-03-23T09:58:02;1.25;1.25;0.00
20157;PMS5003;10239;56.820;24.416;2024-03-23T10:00:32;2.00;0.50;0.00
20157;PMS5003;10239;56.820;24.416;2024-03-23T10:03:00;2.00;0.25;0.00
20157;PMS5003;10239;56.820;24.416;2024-03-23T10:05:30;3.00;2.00;0.00
20157;PMS5003;10239;56.820;24.416;2024-03-23T10:10:41;2.00;2.00;0.00
20157;PMS5003;10239;56.820;24.416;2024-03-23T10:13:07;3.50;2.00;1.00
20157;PMS5003;10239;56.820;24.416;2024-03-23T10:15:34;2.75;2.00;0.00
20157;PMS5003;10239;56.820;24.416;2024-03-23T10:18:20;4.00;1.00;0.00
20157;PMS5003;10239;56.820;24.416;2024-03-23T10:20:51;1.00;1.00;0.00
20157;PMS5003;10239;56.820;24.416;2024-03-23T10:23:35;2.75;1.75;0.50
20157;PMS5003;10239;56.820;24.416;2024-03-23T10:26:18;0.75;0.75;0.50
20157;PMS5003;10239;56.820;24.416;2024-03-23T10:29:01;3.00;1.00;0.00
20157;PMS5003;10239;56.820;24.416;2024-03-23T10:31:33;0.25;0.00;0.00
20157;PMS5003;10239;56.820;24.416;2024-03-23T10:34:05;2.00;1.00;0.00
20157;PMS5003;10239;56.820;24.416;2024-03-23T10:36:31;1.25;0.00;0.00
20157;PMS5003;10239;56.820;24.416;2024-03-23T10:38:59;2.25;1.75;1.00
20157;PMS5003;10239;56.820;24.416;2024-03-23T10:41:27;1.75;1.75;0.75
20157;PMS5003;10239;56.820;24.416;2024-03-23T10:43:58;2.00;1.00;0.00
20157;PMS5003;10239;56.820;24.416;2024-03-23T10:46:27;1.50;1.00;0.25
20157;PMS5003;10239;56.820;24.416;2024-03-23T10:48:54;3.50;2.00;0.00
20157;PMS5003;10239;56.820;24.416;2024-03-23T10:51:20;1.75;1.00;0.00
20157;PMS5003;10239;56.820;24.416;2024-03-23T10:53:47;3.25;2.50;0.00
20157;PMS5003;10239;56.820;24.416;2024-03-23T10:56:13;4.00;1.00;0.00
20157;PMS5003;10239;56.820;24.416;2024-03-23T10:58:42;2.75;1.00;0.50
20157;PMS5003;10239;56.820;24.416;2024-03-23T11:01:13;4.00;1.75;1.00
20157;PMS5003;10239;56.820;24.416;2024-03-23T11:03:41;0.25;0.25;0.00
20157;PMS5003;10239;56.820;24.416;2024-03-23T11:06:11;3.00;1.00;0.00
20157;PMS5003;10239;56.820;24.416;2024-03-23T11:09:01;2.25;1.75;0.00
20157;PMS5003;10239;56.820;24.416;2024-03-23T11:11:28;0.50;0.50;0.00
20157;PMS5003;10239;56.820;24.416;2024-03-23T11:13:57;1.50;1.50;1.00
20157;PMS5003;10239;56.820;24.416;2024-03-23T11:16:25;2.50;1.00;0.00
20157;PMS5003;10239;56.820;24.416;2024-03-23T11:19:40;2.50;1.50;0.00
20157;PMS5003;10239;56.820;24.416;2024-03-23T11:22:01;2.75;2.00;1.00
20157;PMS5003;10239;56.820;24.416;2024-03-23T11:24:31;2.00;2.00;0.00
20157;PMS5003;10239;56.820;24.416;2024-03-23T11:26:58;3.00;2.00;0.00
20157;PMS5003;10239;56.820;24.416;2024-03-23T11:29:27;0.25;0.25;0.00
20157;PMS5003;10239;56.820;24.416;2024-03-23T11:31:55;0.75;0.00;0.00
20157;PMS5003;10239;56.820;24.416;2024-03-23T11:34:22;2.50;2.00;0.00
20157;PMS5003;10239;56.820;24.416;2024-03-23T11:36:48;1.50;0.75;0.25
20157;PMS5003;10239;56.820;24.416;2024-03-23T11:39:18;9.25;2.00;1.00
20157;PMS5003;10239;56.820;24.416;2024-03-23T11:41:49;1.25;0.50;0.00
20157;PMS5003;10239;56.820;24.416;2024-03-23T11:44:23;2.50;1.00;0.00
20157;PMS5003;10239;56.820;24.416;2024-03-23T11:46:52;0.50;0.50;0.00
20157;PMS5003;10239;56.820;24.416;2024-03-23T11:49:23;1.75;1.50;0.00
20157;PMS5003;10239;56.820;24.416;2024-03-23T11:51:50;2.50;2.00;0.00
20157;PMS5003;10239;56.820;24.416;2024-03-23T11:54:20;3.00;1.25;0.00
20157;PMS5003;10239;56.820;24.416;2024-03-23T11:56:54;1.75;1.75;0.75
20157;PMS5003;10239;56.820;24.416;2024-03-23T11:59:36;2.75;1.75;1.00
20157;PMS5003;10239;56.820;24.416;2024-03-23T12:02:08;1.00;1.00;0.00
20157;PMS5003;10239;56.820;24.416;2024-03-23T12:04:36;1.00;1.00;0.00
20157;PMS5003;10239;56.820;24.416;2024-03-23T12:07:16;1.75;1.75;0.00
20157;PMS5003;10239;56.820;24.416;2024-03-23T12:09:45;1.50;1.50;0.00
20157;PMS5003;10239;56.820;24.416;2024-03-23T12:12:15;0.00;0.00;0.00
20157;PMS5003;10239;56.820;24.416;2024-03-23T12:14:46;2.00;0.00;0.00
20157;PMS5003;10239;56.820;24.416;2024-03-23T12:17:28;0.75;0.75;0.00
20157;PMS5003;10239;56.820;24.416;2024-03-23T12:19:54;2.25;0.75;0.00
20157;PMS5003;10239;56.820;24.416;2024-03-23T12:22:21;3.25;1.00;0.00
20157;PMS5003;10239;56.820;24.416;2024-03-23T12:24:48;1.50;1.50;0.50
20157;PMS5003;10239;56.820;24.416;2024-03-23T12:27:14;1.75;1.00;0.50
20157;PMS5003;10239;56.820;24.416;2024-03-23T12:29:41;2.50;1.00;0.00
20157;PMS5003;10239;56.820;24.416;2024-03-23T12:32:11;3.50;2.00;0.25
20157;PMS5003;10239;56.820;24.416;2024-03-23T12:34:39;1.50;1.50;0.00
20157;PMS5003;10239;56.820;24.416;2024-03-23T12:37:05;2.00;2.00;0.00
20157;PMS5003;10239;56.820;24.416;2024-03-23T12:39:32;2.50;1.00;0.75
20157;PMS5003;10239;56.820;24.416;2024-03-23T12:41:58;2.00;0.50;0.00
20157;PMS5003;10239;56.820;24.416;2024-03-23T12:44:24;2.75;1.50;0.00
20157;PMS5003;10239;56.820;24.416;2024-03-23T12:46:50;1.25;1.25;0.00
20157;PMS5003;10239;56.820;24.416;2024-03-23T12:49:16;1.00;0.00;0.00
20157;PMS5003;10239;56.820;24.416;2024-03-23T12:51:48;1.50;0.25;0.00
20157;PMS5003;10239;56.820;24.416;2024-03-23T12:54:23;1.00;1.00;0.00
20157;PMS5003;10239;56.820;24.416;2024-03-23T12:56:50;1.75;0.00;0.00
20157;PMS5003;10239;56.820;24.416;2024-03-23T12:59:16;0.25;0.25;0.00
20157;PMS5003;10239;56.820;24.416;2024-03-23T13:01:44;2.00;0.25;0.00
20157;PMS5003;10239;56.820;24.416;2024-03-23T13:04:10;1.00;1.00;0.50
20157;PMS5003;10239;56.820;24.416;2024-03-23T13:06:37;1.00;1.00;0.00
20157;PMS5003;10239;56.820;24.416;2024-03-23T13:09:03;1.25;1.25;0.00
20157;PMS5003;10239;56.820;24.416;2024-03-23T13:11:30;1.75;0.75;0.00
20157;PMS5003;10239;56.820;24.416;2024-03-23T13:13:57;3.50;2.25;0.75
20157;PMS5003;10239;56.820;24.416;2024-03-23T13:16:23;2.00;2.00;0.75
20157;PMS5003;10239;56.820;24.416;2024-03-23T13:18:49;1.00;1.00;0.00
20157;PMS5003;10239;56.820;24.416;2024-03-23T13:21:16;1.50;1.50;0.00
20157;PMS5003;10239;56.820;24.416;2024-03-23T13:23:42;2.25;1.50;0.00
20157;PMS5003;10239;56.820;24.416;2024-03-23T13:26:13;3.75;2.00;0.75
20157;PMS5003;10239;56.820;24.416;2024-03-23T13:28:39;1.50;1.00;0.00
20157;PMS5003;10239;56.820;24.416;2024-03-23T13:31:06;3.00;1.25;1.00
20157;PMS5003;10239;56.820;24.416;2024-03-23T13:33:34;1.00;1.00;0.00
20157;PMS5003;10239;56.820;24.416;2024-03-23T13:36:00;2.00;2.00;0.00
20157;PMS5003;10239;56.820;24.416;2024-03-23T13:38:27;0.25;0.25;0.00
20157;PMS5003;10239;56.820;24.416;2024-03-23T13:40:57;1.50;1.50;1.00
20157;PMS5003;10239;56.820;24.416;2024-03-23T13:43:25;3.00;3.00;1.75
20157;PMS5003;10239;56.820;24.416;2024-03-23T13:45:53;4.00;2.50;1.00
20157;PMS5003;10239;56.820;24.416;2024-03-23T13:48:25;2.50;2.50;0.00
20157;PMS5003;10239;56.820;24.416;2024-03-23T13:50:59;2.00;2.00;1.00
20157;PMS5003;10239;56.820;24.416;2024-03-23T13:53:26;2.00;2.00;1.00
20157;PMS5003;10239;56.820;24.416;2024-03-23T13:55:52;4.00;2.75;1.00
20157;PMS5003;10239;56.820;24.416;2024-03-23T13:58:19;4.80;3.40;1.40
20157;PMS5003;10239;56.820;24.416;2024-03-23T14:00:45;1.75;1.00;0.00
20157;PMS5003;10239;56.820;24.416;2024-03-23T14:03:12;1.25;1.25;1.00
20157;PMS5003;10239;56.820;24.416;2024-03-23T14:05:39;3.00;1.80;0.80
20157;PMS5003;10239;56.820;24.416;2024-03-23T14:08:10;2.25;2.25;1.00
20157;PMS5003;10239;56.820;24.416;2024-03-23T14:10:40;2.75;2.00;2.00
20157;PMS5003;10239;56.820;24.416;2024-03-23T14:13:06;2.00;2.00;1.00
20157;PMS5003;10239;56.820;24.416;2024-03-23T14:15:33;4.00;2.00;0.00
20157;PMS5003;10239;56.820;24.416;2024-03-23T14:17:59;5.00;2.75;1.00
20157;PMS5003;10239;56.820;24.416;2024-03-23T14:20:26;2.50;2.50;1.00
20157;PMS5003;10239;56.820;24.416;2024-03-23T14:22:52;3.75;2.25;1.00
20157;PMS5003;10239;56.820;24.416;2024-03-23T14:25:18;2.00;2.00;1.00
20157;PMS5003;10239;56.820;24.416;2024-03-23T14:27:45;1.40;1.40;0.80
20157;PMS5003;10239;56.820;24.416;2024-03-23T14:30:12;3.00;3.00;1.00
20157;PMS5003;10239;56.820;24.416;2024-03-23T14:32:39;2.80;2.80;1.60
20157;PMS5003;10239;56.820;24.416;2024-03-23T14:35:06;1.80;1.80;0.80
20157;PMS5003;10239;56.820;24.416;2024-03-23T14:37:38;2.00;2.00;1.00
20157;PMS5003;10239;56.820;24.416;2024-03-23T14:40:08;4.80;0.00;0.00
20157;PMS5003;10239;56.820;24.416;2024-03-23T14:42:37;1.00;1.00;0.80
20157;PMS5003;10239;56.820;24.416;2024-03-23T14:45:03;2.40;2.40;1.00
20157;PMS5003;10239;56.820;24.416;2024-03-23T14:47:30;1.00;1.00;0.00
20157;PMS5003;10239;56.820;24.416;2024-03-23T14:49:56;1.00;1.00;1.00
20157;PMS5003;10239;56.820;24.416;2024-03-23T14:52:24;2.40;1.80;0.60
20157;PMS5003;10239;56.820;24.416;2024-03-23T14:54:50;2.20;2.20;0.00
20157;PMS5003;10239;56.820;24.416;2024-03-23T14:57:16;1.60;1.40;0.00
20157;PMS5003;10239;56.820;24.416;2024-03-23T14:59:44;1.80;1.60;1.00
20157;PMS5003;10239;56.820;24.416;2024-03-23T15:02:10;2.80;2.80;0.00
20157;PMS5003;10239;56.820;24.416;2024-03-23T15:04:38;1.40;1.40;0.00
20157;PMS5003;10239;56.820;24.416;2024-03-23T15:07:07;1.00;1.00;0.80
20157;PMS5003;10239;56.820;24.416;2024-03-23T15:09:33;1.00;1.00;0.00